Time;durP1;ratioP1;P1;durP2;ratioP2;P2;SDS_P1;SDS_P2;PMS_P1;PMS_P2;Temp;Humidity;BMP_temperature;BMP_pressure;BME280_temperature;BME280_humidity;BME280_pressure;Samples;Min_cycle;Max_cycle;Signal;HPM_P1;HPM_P2
2022/09/07 00:00:55;;;;;;;8.83;7.97;;;;;;;19.51;92.78;97973.84;4198905;28;20762;-85
2022/09/07 00:02:58;;;;;;;10.10;8.20;;;;;;;19.52;94.07;97972.88;4203717;28;20700;-84
2022/09/07 00:05:02;;;;;;;11.00;7.73;;;;;;;19.50;92.62;97968.72;4183995;28;20636;-85
2022/09/07 00:07:05;;;;;;;10.93;8.03;;;;;;;19.49;93.97;97964.44;4187519;28;21237;-85
2022/09/07 00:09:08;;;;;;;11.77;8.80;;;;;;;19.46;92.43;97962.94;4184090;28;20667;-85
2022/09/07 00:11:13;;;;;;;8.67;7.73;;;;;;;19.44;93.99;97972.84;4202682;28;20650;-84
2022/09/07 00:13:18;;;;;;;9.93;8.93;;;;;;;19.42;93.83;97966.91;4203952;28;20653;-84
2022/09/07 00:15:21;;;;;;;8.73;7.93;;;;;;;19.40;94.02;97958.28;4202785;28;20650;-85
2022/09/07 00:17:25;;;;;;;10.60;8.13;;;;;;;19.37;93.27;97963.91;4204844;28;20642;-85
2022/09/07 00:19:28;;;;;;;9.93;7.80;;;;;;;19.38;94.08;97962.09;4203515;28;21243;-85
2022/09/07 00:21:31;;;;;;;10.23;7.63;;;;;;;19.38;93.00;97960.28;4184148;28;21327;-84
2022/09/07 00:23:36;;;;;;;8.70;7.90;;;;;;;19.38;93.64;97957.63;4203349;28;20654;-85
2022/09/07 00:25:43;;;;;;;8.97;8.07;;;;;;;19.38;94.77;97952.34;4188808;28;21075;-85
2022/09/07 00:27:46;;;;;;;12.23;8.17;;;;;;;19.37;94.83;97949.84;4205263;28;20693;-85
2022/09/07 00:29:50;;;;;;;9.10;8.20;;;;;;;19.36;94.06;97942.06;4203412;28;21309;-84
2022/09/07 00:31:54;;;;;;;8.77;7.67;;;;;;;19.32;94.01;97940.72;4205094;28;20642;-85
2022/09/07 00:33:59;;;;;;;10.70;8.07;;;;;;;19.29;93.86;97941.06;4202066;28;21316;-85
2022/09/07 00:36:02;;;;;;;13.70;8.20;;;;;;;19.26;94.03;97930.81;4203969;28;21243;-85
2022/09/07 00:38:05;;;;;;;8.60;7.63;;;;;;;19.27;93.49;97935.94;4201257;28;20654;-85
2022/09/07 00:40:09;;;;;;;10.50;7.70;;;;;;;19.24;93.76;97922.22;4200133;28;20646;-85
2022/09/07 00:42:12;;;;;;;9.27;7.70;;;;;;;19.21;93.28;97925.19;4182075;28;20693;-85
2022/09/07 00:45:08;;;;;;;11.53;8.37;;;;;;;19.20;94.66;97924.34;4205439;28;21119;-85
2022/09/07 00:47:16;;;;;;;10.10;8.30;;;;;;;19.21;94.91;97925.19;4205957;28;20753;-85
2022/09/07 00:49:21;;;;;;;11.13;8.53;;;;;;;19.22;94.87;97921.56;4206423;28;21210;-85
2022/09/07 00:51:32;;;;;;;12.40;9.10;;;;;;;19.22;95.12;97913.63;4201731;28;20645;-85
2022/09/07 00:53:38;;;;;;;11.87;8.97;;;;;;;19.21;94.31;97912.78;4189776;28;20645;-85
2022/09/07 00:55:43;;;;;;;9.97;8.10;;;;;;;19.22;93.95;97908.31;4205855;28;20679;-82
2022/09/07 00:57:53;;;;;;;11.83;8.00;;;;;;;19.20;93.37;97899.72;4205607;28;20656;-86
2022/09/07 00:59:58;;;;;;;8.07;7.27;;;;;;;19.15;93.12;97889.63;4188877;28;20704;-86
2022/09/07 01:02:01;;;;;;;11.50;7.70;;;;;;;19.12;93.83;97886.47;4210436;28;20665;-85
2022/09/07 01:04:06;;;;;;;8.37;7.50;;;;;;;19.09;92.96;97889.44;4209599;28;20745;-86
2022/09/07 01:06:15;;;;;;;10.70;8.73;;;;;;;19.07;93.91;97879.03;4202770;28;20647;-86
2022/09/07 01:08:18;;;;;;;9.07;8.00;;;;;;;19.08;94.35;97879.88;4206899;28;21091;-86
2022/09/07 01:10:23;;;;;;;9.47;8.03;;;;;;;19.07;94.46;97878.22;4191225;28;20683;-85
2022/09/07 01:12:26;;;;;;;10.60;8.50;;;;;;;19.06;94.86;97876.53;4207893;28;20646;-86
2022/09/07 01:14:31;;;;;;;14.57;8.40;;;;;;;19.04;94.46;97875.88;4208746;28;20638;-86
2022/09/07 01:16:57;;;;;;;9.67;7.47;;;;;;;19.03;93.51;97872.44;4189138;28;20652;-86
2022/09/07 01:19:12;;;;;;;10.10;8.07;;;;;;;19.00;93.86;97872.72;4190462;28;20712;-86
2022/09/07 01:21:26;;;;;;;9.90;8.23;;;;;;;18.96;92.92;97870.56;4204352;28;20631;-86
2022/09/07 01:24:02;;;;;;;8.80;8.00;;;;;;;18.93;94.02;97876.16;4209114;28;20657;-85
2022/09/07 01:26:32;;;;;;;11.07;8.53;;;;;;;18.92;93.92;97877.97;4206075;28;21039;-86
2022/09/07 01:28:37;;;;;;;10.77;7.70;;;;;;;18.89;93.68;97874.81;4205245;28;20649;-86
2022/09/07 01:30:44;;;;;;;10.60;8.13;;;;;;;18.88;94.55;97872.34;4206257;28;21183;-85
2022/09/07 01:33:01;;;;;;;13.17;8.40;;;;;;;18.88;93.56;97873.16;4207474;28;20747;-85
2022/09/07 01:35:10;;;;;;;12.00;8.53;;;;;;;18.88;93.74;97876.66;4206442;28;20652;-86
2022/09/07 01:37:19;;;;;;;11.13;8.37;;;;;;;18.87;94.38;97882.09;4211453;28;20646;-86
2022/09/07 01:39:25;;;;;;;11.60;8.50;;;;;;;18.85;94.38;97883.22;4190620;28;20646;-86
2022/09/07 01:41:32;;;;;;;9.67;8.17;;;;;;;18.83;94.66;97891.31;4207591;28;21277;-86
2022/09/07 01:43:41;;;;;;;11.70;8.93;;;;;;;18.84;94.29;97900.91;4209510;28;20649;-86
2022/09/07 01:45:45;;;;;;;10.30;8.00;;;;;;;18.82;93.50;97896.78;4205210;28;20647;-86
2022/09/07 01:47:52;;;;;;;10.83;7.87;;;;;;;18.76;93.63;97895.56;4207730;28;20660;-86
2022/09/07 01:49:58;;;;;;;10.03;8.23;;;;;;;18.76;93.34;97895.56;4203446;28;20645;-82
2022/09/07 01:52:05;;;;;;;9.20;8.30;;;;;;;18.77;94.85;97896.44;4205180;28;21247;-82
2022/09/07 01:54:11;;;;;;;9.40;8.50;;;;;;;18.79;94.49;97899.72;4205350;28;20648;-82
2022/09/07 01:56:22;;;;;;;10.73;8.63;;;;;;;18.79;93.93;97907.66;4207805;28;20651;-82
2022/09/07 01:58:29;;;;;;;10.77;8.50;;;;;;;18.79;94.15;97903.19;4206847;28;20653;-82
2022/09/07 02:00:34;;;;;;;13.67;9.10;;;;;;;18.80;94.87;97902.22;4201074;28;20657;-82
2022/09/07 02:02:40;;;;;;;9.93;8.23;;;;;;;18.84;94.91;97908.84;4203432;28;20666;-82
2022/09/07 02:04:48;;;;;;;10.07;8.03;;;;;;;18.84;95.72;97908.84;4206567;28;21077;-82
2022/09/07 02:06:56;;;;;;;9.20;7.80;;;;;;;18.86;95.38;97912.16;4200615;28;20658;-82
2022/09/07 02:09:02;;;;;;;9.07;8.17;;;;;;;18.88;94.96;97912.81;4202338;28;21091;-82
2022/09/07 02:11:09;;;;;;;9.73;8.63;;;;;;;18.88;95.64;97918.94;4206250;28;20647;-82
2022/09/07 02:13:16;;;;;;;9.07;8.27;;;;;;;18.91;94.71;97915.97;4202547;28;20657;-82
2022/09/07 02:15:23;;;;;;;9.27;7.47;;;;;;;18.91;95.39;97915.13;4206079;28;21008;-82
2022/09/07 02:17:31;;;;;;;10.77;8.20;;;;;;;18.95;95.51;97921.75;4209166;28;20694;-82
2022/09/07 02:19:38;;;;;;;8.80;6.90;;;;;;;18.95;96.19;97922.59;4188695;28;20643;-82
2022/09/07 02:21:43;;;;;;;10.00;7.50;;;;;;;18.96;95.37;97926.06;4202162;28;20650;-82
2022/09/07 02:23:50;;;;;;;11.10;8.10;;;;;;;18.97;96.22;97925.91;4201665;28;20695;-82
2022/09/07 02:25:57;;;;;;;10.80;9.17;;;;;;;18.98;96.31;97926.72;4197978;28;20651;-82
2022/09/07 02:28:05;;;;;;;10.83;8.23;;;;;;;18.99;96.45;97931.03;4219667;28;20652;-82
2022/09/07 02:30:09;;;;;;;9.93;8.53;;;;;;;19.00;95.02;97930.03;4207059;28;20786;-82
2022/09/07 02:32:12;;;;;;;10.13;8.47;;;;;;;18.99;95.78;97925.75;4208603;28;20653;-82
2022/09/07 02:34:16;;;;;;;10.70;8.50;;;;;;;18.98;95.58;97932.84;4201258;28;20716;-82
2022/09/07 02:36:23;;;;;;;10.20;8.23;;;;;;;18.99;96.58;97937.16;4199740;28;20652;-82
2022/09/07 02:38:26;;;;;;;9.57;8.00;;;;;;;18.98;96.33;97926.72;4200036;28;20634;-82
2022/09/07 02:40:31;;;;;;;12.17;8.20;;;;;;;18.98;96.52;97932.03;4182653;28;20654;-82
2022/09/07 02:42:35;;;;;;;10.93;9.13;;;;;;;18.98;96.32;97937.31;4200782;28;20658;-82
2022/09/07 02:44:40;;;;;;;12.83;8.63;;;;;;;18.98;96.19;97937.31;4183212;28;20655;-82
2022/09/07 02:46:52;;;;;;;14.77;8.70;;;;;;;18.97;95.28;97933.84;4203341;28;20665;-82
2022/09/07 02:49:01;;;;;;;10.07;8.57;;;;;;;18.97;96.35;97939.13;4207330;28;20657;-82
2022/09/07 02:51:15;;;;;;;9.67;7.90;;;;;;;18.96;96.53;97941.94;4188329;28;20651;-82
2022/09/07 02:53:30;;;;;;;9.80;7.53;;;;;;;18.99;95.45;97945.09;4208067;28;20650;-82
2022/09/07 02:55:41;;;;;;;13.00;7.70;;;;;;;18.99;96.18;97941.63;4203847;28;20663;-82
2022/09/07 02:57:50;;;;;;;11.63;8.20;;;;;;;18.97;95.12;97948.88;4206851;28;20695;-82
2022/09/07 03:00:02;;;;;;;9.50;8.30;;;;;;;18.98;95.06;97955.81;4188918;28;20667;-83
2022/09/07 03:02:11;;;;;;;10.27;8.50;;;;;;;18.99;95.98;97968.06;4199012;28;21071;-82
2022/09/07 03:04:19;;;;;;;14.63;7.70;;;;;;;18.98;95.80;97967.22;4203837;28;20745;-82
2022/09/07 03:06:27;;;;;;;10.03;8.20;;;;;;;18.97;95.03;97962.09;4200561;28;21219;-82
2022/09/07 03:08:36;;;;;;;12.67;8.60;;;;;;;18.99;96.10;97968.06;4203087;28;21013;-82
2022/09/07 03:10:40;;;;;;;8.87;7.70;;;;;;;18.98;96.33;97963.75;4197260;28;20650;-82
2022/09/07 03:12:45;;;;;;;11.10;7.53;;;;;;;18.98;96.84;97969.03;4202272;28;20646;-82
2022/09/07 03:14:48;;;;;;;10.03;8.00;;;;;;;18.96;95.84;97960.44;4200911;28;21277;-82
2022/09/07 03:16:56;;;;;;;11.50;8.10;;;;;;;18.98;95.38;97963.75;4208182;28;20703;-82
2022/09/07 03:18:59;;;;;;;9.03;7.83;;;;;;;18.97;95.46;97970.00;4202332;28;20645;-82
2022/09/07 03:21:02;;;;;;;11.60;8.17;;;;;;;18.96;96.07;97960.44;4215975;28;20655;-82
2022/09/07 03:23:07;;;;;;;8.93;7.33;;;;;;;18.94;95.31;97959.75;4206886;28;20689;-82
2022/09/07 03:25:10;;;;;;;8.70;7.90;;;;;;;18.96;96.42;97963.09;4201659;28;21269;-82
2022/09/07 03:27:13;;;;;;;9.53;7.70;;;;;;;18.92;96.59;97954.63;4183493;28;21256;-82
2022/09/07 03:29:16;;;;;;;8.77;7.70;;;;;;;18.92;95.40;97965.19;4188509;28;21278;-82
2022/09/07 03:31:22;;;;;;;9.53;8.00;;;;;;;18.91;95.45;97957.44;4178868;28;20645;-82
2022/09/07 03:33:25;;;;;;;8.63;7.73;;;;;;;18.89;96.36;97965.50;4198493;28;20638;-82
2022/09/07 03:35:28;;;;;;;9.33;7.80;;;;;;;18.90;96.24;97966.38;4193247;28;20642;-82
2022/09/07 03:37:31;;;;;;;10.20;7.90;;;;;;;18.90;96.66;97967.19;4186375;28;20646;-83
2022/09/07 03:39:36;;;;;;;9.13;7.53;;;;;;;18.90;96.55;97966.38;4202270;28;20651;-82
2022/09/07 03:41:39;;;;;;;8.87;8.00;;;;;;;18.93;95.93;97971.34;4199731;28;20644;-82
2022/09/07 03:43:42;;;;;;;9.20;7.53;;;;;;;18.93;96.62;97972.16;4201485;28;20670;-82
2022/09/07 03:45:48;;;;;;;8.60;7.70;;;;;;;18.95;95.46;97979.94;4201976;28;20676;-82
2022/09/07 03:47:52;;;;;;;9.53;7.80;;;;;;;18.94;95.45;97978.25;4201909;28;20764;-82
2022/09/07 03:49:55;;;;;;;8.90;7.73;;;;;;;18.96;96.20;97971.03;4200733;28;20657;-82
2022/09/07 03:51:58;;;;;;;10.10;8.37;;;;;;;18.94;95.43;97968.53;4200765;28;20714;-82
2022/09/07 03:54:01;;;;;;;10.60;8.50;;;;;;;18.89;96.56;97957.59;4198968;28;20987;-82
2022/09/07 03:56:07;;;;;;;9.47;7.60;;;;;;;18.90;95.60;97956.59;4198647;28;20650;-83
2022/09/07 03:58:10;;;;;;;11.27;8.17;;;;;;;18.89;94.87;97964.69;4199044;28;20646;-82
2022/09/07 04:00:14;;;;;;;8.60;7.53;;;;;;;18.84;95.82;97964.34;4205046;28;20657;-82
2022/09/07 04:02:18;;;;;;;11.10;8.57;;;;;;;18.79;95.58;97965.81;4205871;28;20648;-82
2022/09/07 04:04:21;;;;;;;8.00;7.30;;;;;;;18.78;94.48;97964.13;4197018;28;20652;-82
2022/09/07 04:06:25;;;;;;;9.53;7.90;;;;;;;18.78;94.60;97972.06;4201533;28;20653;-83
2022/09/07 04:08:29;;;;;;;10.30;7.77;;;;;;;18.78;95.01;97966.78;4204150;28;20691;-82
2022/09/07 04:10:37;;;;;;;8.37;7.27;;;;;;;18.78;95.39;97972.91;4200484;28;20661;-82
2022/09/07 04:12:41;;;;;;;8.90;7.63;;;;;;;18.80;96.00;97965.66;4199872;28;21240;-82
2022/09/07 04:14:45;;;;;;;7.97;7.13;;;;;;;18.81;94.41;97955.91;4202929;28;20646;-82
2022/09/07 04:16:49;;;;;;;10.73;7.40;;;;;;;18.76;95.06;97947.63;4202957;28;20683;-82
2022/09/07 04:18:53;;;;;;;7.50;6.53;;;;;;;18.75;95.53;97964.44;4203608;28;20660;-84
2022/09/07 04:20:58;;;;;;;7.70;6.43;;;;;;;18.74;94.21;97963.63;4204065;28;20720;-82
2022/09/07 04:23:01;;;;;;;10.57;6.17;;;;;;;18.72;94.66;97967.41;4203251;28;20634;-82
2022/09/07 04:25:08;;;;;;;9.13;6.90;;;;;;;18.72;94.38;97970.91;4205768;28;20664;-82
2022/09/07 04:27:11;;;;;;;8.17;6.40;;;;;;;18.72;94.19;97978.84;4204112;28;20645;-82
2022/09/07 04:29:16;;;;;;;8.80;6.43;;;;;;;18.71;94.46;97971.88;4206756;28;21054;-82
2022/09/07 04:31:19;;;;;;;10.20;6.33;;;;;;;18.71;94.60;97966.59;4206200;28;20634;-83
2022/09/07 04:33:22;;;;;;;6.50;5.37;;;;;;;18.68;94.50;97974.84;4201487;28;20644;-84
2022/09/07 04:35:26;;;;;;;6.27;5.67;;;;;;;18.71;95.38;97974.53;4205123;28;20653;-84
2022/09/07 04:37:29;;;;;;;8.57;5.10;;;;;;;18.75;95.14;97967.09;4201760;28;21243;-84
2022/09/07 04:39:32;;;;;;;6.13;4.83;;;;;;;18.80;94.21;97975.41;4204681;28;21025;-84
2022/09/07 04:41:35;;;;;;;8.57;5.97;;;;;;;18.77;93.94;97975.72;4211725;28;20685;-84
2022/09/07 04:43:39;;;;;;;6.87;6.17;;;;;;;18.74;94.42;97979.50;4205158;28;21301;-84
2022/09/07 04:45:44;;;;;;;7.17;5.87;;;;;;;18.74;94.48;97976.03;4208171;28;21059;-84
2022/09/07 04:47:47;;;;;;;9.50;6.47;;;;;;;18.74;94.88;97976.03;4205989;28;20775;-84
2022/09/07 04:49:51;;;;;;;7.53;6.70;;;;;;;18.72;94.54;97983.25;4202892;28;20709;-84
2022/09/07 04:51:54;;;;;;;16.90;7.20;;;;;;;18.70;94.50;97988.75;4205190;28;20659;-84
2022/09/07 04:53:59;;;;;;;8.73;7.83;;;;;;;18.69;94.99;97988.91;4220510;27;20694;-84
2022/09/07 04:56:02;;;;;;;7.13;6.40;;;;;;;18.67;94.55;97990.84;4195404;28;20638;-84
2022/09/07 04:58:06;;;;;;;9.80;7.10;;;;;;;18.65;95.13;97982.25;4204687;28;20688;-84
2022/09/07 05:00:10;;;;;;;7.97;7.20;;;;;;;18.65;95.51;97984.91;4205764;28;20657;-84
2022/09/07 05:02:15;;;;;;;7.97;7.10;;;;;;;18.65;94.57;97979.63;4186039;28;20651;-84
2022/09/07 05:04:18;;;;;;;8.53;6.70;;;;;;;18.64;94.63;97970.88;4186607;28;20746;-84
2022/09/07 05:06:22;;;;;;;11.13;6.73;;;;;;;18.62;94.63;97975.47;4204201;28;21280;-84
2022/09/07 05:08:25;;;;;;;10.87;6.83;;;;;;;18.61;95.53;97979.09;4203904;28;21037;-84
2022/09/07 05:10:28;;;;;;;6.93;6.23;;;;;;;18.64;94.69;97973.50;4201476;28;20674;-84
2022/09/07 05:12:31;;;;;;;8.10;6.70;;;;;;;18.63;95.43;97966.56;4205118;28;20652;-84
2022/09/07 05:14:34;;;;;;;8.53;7.27;;;;;;;18.61;95.38;97970.34;4203649;28;20727;-84
2022/09/07 05:16:37;;;;;;;8.80;7.10;;;;;;;18.57;95.36;97983.03;4202175;28;20652;-84
2022/09/07 05:18:42;;;;;;;8.50;7.20;;;;;;;18.57;95.06;97980.41;4207297;28;20660;-84
2022/09/07 05:20:45;;;;;;;8.77;7.30;;;;;;;18.58;95.18;97978.56;4203174;28;20650;-84
2022/09/07 05:22:48;;;;;;;8.93;7.40;;;;;;;18.57;95.35;97975.13;4204007;28;20664;-84
2022/09/07 05:24:51;;;;;;;10.60;7.50;;;;;;;18.59;95.34;97986.34;4202666;28;20658;-84
2022/09/07 05:26:55;;;;;;;7.90;6.80;;;;;;;18.60;95.50;97984.56;4201478;28;20657;-83
2022/09/07 05:29:01;;;;;;;10.27;7.53;;;;;;;18.63;95.65;97992.16;4185918;28;20671;-84
2022/09/07 05:31:24;;;;;;;8.70;7.43;;;;;;;18.71;95.62;97989.56;4203195;28;21257;-84
2022/09/07 05:33:27;;;;;;;10.87;8.57;;;;;;;18.75;95.38;97991.72;4202075;28;20650;-84
2022/09/07 05:35:57;;;;;;;10.13;7.73;;;;;;;18.88;95.91;97994.75;4202547;28;20633;-84
2022/09/07 05:38:00;;;;;;;7.97;7.10;;;;;;;19.06;94.71;97998.19;4188348;28;20663;-84
2022/09/07 05:40:04;;;;;;;14.17;8.13;;;;;;;19.24;94.74;97998.91;4205216;28;20650;-84
2022/09/07 05:42:07;;;;;;;11.13;7.60;;;;;;;19.39;94.44;98001.63;4200584;28;20770;-84
2022/09/07 05:44:10;;;;;;;9.27;7.93;;;;;;;19.58;93.78;98000.50;4203337;28;20725;-84
2022/09/07 05:46:33;;;;;;;8.63;7.53;;;;;;;19.73;93.33;98005.00;4200219;28;21220;-84
2022/09/07 05:48:37;;;;;;;11.07;6.97;;;;;;;19.73;91.31;97997.06;4202231;28;20653;-84
2022/09/07 05:50:53;;;;;;;9.83;7.47;;;;;;;19.78;91.73;98004.50;4197995;28;20638;-84
2022/09/07 05:52:58;;;;;;;9.33;7.63;;;;;;;19.91;92.99;98014.47;4199841;28;20708;-84
2022/09/07 05:55:01;;;;;;;9.93;7.47;;;;;;;20.08;91.46;98010.03;4203374;28;20637;-84
2022/09/07 05:57:24;;;;;;;10.70;7.67;;;;;;;20.25;89.41;98022.28;4198428;28;20642;-84
2022/09/07 05:59:28;;;;;;;10.53;7.87;;;;;;;20.42;89.27;98022.13;4190895;28;20639;-87
2022/09/07 06:01:34;;;;;;;8.80;7.63;;;;;;;20.56;89.48;98024.91;4200136;28;21200;-87
2022/09/07 06:03:38;;;;;;;9.70;7.90;;;;;;;20.76;89.41;98030.69;4207394;28;21273;-87
2022/09/07 06:05:41;;;;;;;9.17;7.87;;;;;;;20.91;88.62;98029.81;4205948;28;21239;-86
2022/09/07 06:07:47;;;;;;;8.43;7.50;;;;;;;21.06;87.52;98044.88;4206424;28;20662;-86
2022/09/07 06:09:52;;;;;;;11.10;8.00;;;;;;;21.17;86.03;98039.22;4205479;28;20687;-86
2022/09/07 06:12:15;;;;;;;8.53;7.10;;;;;;;21.28;85.68;98041.50;4205655;28;22367;-86
2022/09/07 06:14:18;;;;;;;8.83;7.30;;;;;;;21.39;85.04;98052.56;4201242;28;20659;-85
2022/09/07 06:16:21;;;;;;;9.40;7.03;;;;;;;21.49;85.10;98047.91;4200915;28;20789;-87
2022/09/07 06:18:29;;;;;;;7.90;7.10;;;;;;;21.57;84.63;98047.84;4200597;28;20651;-85
2022/09/07 06:20:32;;;;;;;8.50;7.60;;;;;;;21.71;85.51;98049.78;4200055;28;20683;-85
2022/09/07 06:22:36;;;;;;;9.27;6.70;;;;;;;21.87;84.93;98041.72;4202248;28;20653;-85
2022/09/07 06:24:39;;;;;;;8.27;7.20;;;;;;;22.02;83.99;98039.94;4198448;28;20751;-85
2022/09/07 06:26:43;;;;;;;8.83;6.93;;;;;;;22.13;83.56;98034.22;4197641;28;20654;-85
2022/09/07 06:28:47;;;;;;;7.70;6.60;;;;;;;;;;4203011;28;20660;-84
2022/09/07 06:30:53;;;;;;;9.43;6.17;;;;;;;22.43;82.99;98047.47;4202471;28;20750;-84
2022/09/07 06:32:56;;;;;;;8.57;6.43;;;;;;;22.55;81.61;98040.72;4200101;28;21069;-84
2022/09/07 06:34:59;;;;;;;8.97;6.50;;;;;;;22.69;82.10;98043.41;4199621;28;20646;-85
2022/09/07 06:37:02;;;;;;;8.70;6.80;;;;;;;22.81;80.90;98045.44;4201232;28;20653;-85
2022/09/07 06:39:06;;;;;;;7.33;6.63;;;;;;;22.95;81.14;98044.66;4185313;28;20706;-85
2022/09/07 06:41:10;;;;;;;7.20;6.40;;;;;;;23.08;80.08;98049.34;4202082;28;20652;-85
2022/09/07 06:43:35;;;;;;;9.23;7.40;;;;;;;23.22;80.62;98050.19;4196987;28;20653;-85
2022/09/07 06:45:38;;;;;;;6.90;6.00;;;;;;;23.37;79.83;98040.34;4185892;28;20715;-85
2022/09/07 06:47:41;;;;;;;8.63;6.27;;;;;;;23.54;79.20;98054.28;4202332;28;20658;-85
2022/09/07 06:49:44;;;;;;;10.30;6.03;;;;;;;23.69;79.06;98050.63;4184916;28;20666;-85
2022/09/07 06:51:47;;;;;;;8.63;5.80;;;;;;;23.83;78.80;98053.28;4199282;28;20657;-84
2022/09/07 06:53:51;;;;;;;10.53;6.30;;;;;;;23.94;79.39;98039.44;4199214;28;20652;-85
2022/09/07 06:55:54;;;;;;;7.67;6.90;;;;;;;24.14;78.16;98055.66;4182821;28;20680;-85
2022/09/07 06:57:57;;;;;;;14.73;6.07;;;;;;;24.33;78.89;98050.56;4202115;28;20650;-85
2022/09/07 07:00:03;;;;;;;8.87;6.37;;;;;;;24.61;78.58;98041.53;4197840;28;20647;-85
2022/09/07 07:02:07;;;;;;;7.17;6.20;;;;;;;24.86;77.11;98042.78;4184499;28;22234;-85
2022/09/07 07:04:10;;;;;;;7.60;6.10;;;;;;;25.16;77.22;98037.88;4199377;28;20655;-85
2022/09/07 07:06:13;;;;;;;6.00;5.33;;;;;;;25.50;76.12;98042.38;4185451;28;20653;-85
2022/09/07 07:08:17;;;;;;;6.37;5.40;;;;;;;25.75;75.34;98039.84;4175176;28;20705;-85
2022/09/07 07:10:20;;;;;;;6.90;4.90;;;;;;;25.97;73.24;98033.34;4212006;28;20687;-85
2022/09/07 07:12:29;;;;;;;6.73;4.40;;;;;;;26.12;72.89;98031.34;4202738;28;20652;-85
2022/09/07 07:14:31;;;;;;;7.87;5.30;;;;;;;26.27;72.88;98026.63;4184661;28;20654;-85
2022/09/07 07:16:39;;;;;;;5.30;4.60;;;;;;;26.44;72.60;98022.56;4202000;28;20652;-85
2022/09/07 07:18:43;;;;;;;7.83;4.40;;;;;;;26.60;72.20;98015.75;4185650;28;20673;-85
2022/09/07 07:20:46;;;;;;;7.40;4.20;;;;;;;26.70;70.76;98016.19;4200888;28;20658;-86
2022/09/07 07:22:50;;;;;;;8.27;4.53;;;;;;;26.83;70.80;98020.69;4201085;28;20640;-91
2022/09/07 07:24:54;;;;;;;7.60;4.43;;;;;;;26.81;69.51;98023.59;4196219;28;21008;-86
2022/09/07 07:26:57;;;;;;;8.53;4.13;;;;;;;26.71;70.66;98023.16;4199258;28;20661;-86
2022/09/07 07:29:00;;;;;;;6.03;3.97;;;;;;;26.68;70.84;98026.25;4198726;28;20657;-86
2022/09/07 07:31:06;;;;;;;6.37;3.80;;;;;;;26.63;71.10;98033.28;4201503;28;20699;-86
2022/09/07 07:33:16;;;;;;;5.80;3.50;;;;;;;26.42;71.50;98024.63;4208536;28;20641;-86
2022/09/07 07:35:19;;;;;;;5.50;3.70;;;;;;;26.39;71.72;98030.38;4198927;28;20657;-86
2022/09/07 07:37:23;;;;;;;5.73;3.50;;;;;;;26.31;71.37;98039.44;4187070;28;21002;-85
2022/09/07 07:39:30;;;;;;;5.60;3.80;;;;;;;26.30;71.77;98036.97;4200935;28;20649;-86
2022/09/07 07:41:53;;;;;;;8.30;3.93;;;;;;;26.45;72.36;98045.63;4202137;28;20753;-86
2022/09/07 07:44:02;;;;;;;5.33;3.40;;;;;;;26.74;70.56;98040.69;4205899;28;20678;-86
2022/09/07 07:46:05;;;;;;;6.00;3.70;;;;;;;26.95;70.51;98054.72;4200575;28;20682;-86
2022/09/07 07:48:11;;;;;;;7.13;3.00;;;;;;;27.26;69.65;98055.69;4185255;28;20655;-86
2022/09/07 07:50:16;;;;;;;8.43;4.10;;;;;;;27.64;69.17;98064.69;4203864;28;21075;-86
2022/09/07 07:52:38;;;;;;;6.80;3.67;;;;;;;27.97;68.65;98074.25;4211438;28;20643;-86
2022/09/07 07:55:05;;;;;;;6.60;3.57;;;;;;;28.28;68.03;98072.47;4205022;28;21310;-86
2022/09/07 07:57:28;;;;;;;6.10;3.87;;;;;;;28.44;66.47;98076.50;4207846;28;20701;-86
2022/09/07 07:59:31;;;;;;;5.43;3.57;;;;;;;28.45;65.99;98080.84;4204584;28;20743;-86
2022/09/07 08:01:35;;;;;;;8.23;3.30;;;;;;;28.17;66.54;98075.81;4200749;28;20700;-86
2022/09/07 08:03:40;;;;;;;9.63;4.00;;;;;;;27.91;67.54;98076.97;4207592;28;21095;-86
2022/09/07 08:05:45;;;;;;;4.60;3.30;;;;;;;27.75;67.09;98067.53;4191448;28;20743;-86
2022/09/07 08:07:48;;;;;;;8.83;4.37;;;;;;;27.75;68.05;98072.06;4191489;28;21432;-86
2022/09/07 08:09:51;;;;;;;6.43;3.40;;;;;;;27.57;68.11;98058.53;4182476;28;20710;-86
2022/09/07 08:11:55;;;;;;;7.07;3.73;;;;;;;27.35;67.95;98067.00;4183811;28;20652;-86
2022/09/07 08:13:59;;;;;;;8.30;3.77;;;;;;;27.40;68.84;98065.34;4209760;28;20637;-86
2022/09/07 08:16:04;;;;;;;7.40;3.80;;;;;;;27.67;68.44;98066.97;4189123;28;21025;-86
2022/09/07 08:18:07;;;;;;;8.43;3.43;;;;;;;27.95;68.64;98080.88;4204374;28;20664;-86
2022/09/07 08:20:10;;;;;;;5.20;3.40;;;;;;;28.22;66.77;98077.88;4198888;28;20713;-84
2022/09/07 08:22:14;;;;;;;7.80;3.30;;;;;;;28.39;66.10;98084.41;4206773;28;20763;-85
2022/09/07 08:24:18;;;;;;;7.10;3.67;;;;;;;28.53;66.20;98092.94;4197480;28;20730;-85
2022/09/07 08:26:21;;;;;;;6.43;3.30;;;;;;;28.58;65.88;98090.47;4208839;28;21218;-86
2022/09/07 08:28:24;;;;;;;6.80;3.47;;;;;;;28.66;65.54;98089.38;4203525;28;20643;-86
2022/09/07 08:30:28;;;;;;;5.53;3.37;;;;;;;28.73;66.05;98093.69;4203146;28;21315;-85
2022/09/07 08:32:31;;;;;;;6.70;3.80;;;;;;;28.81;64.13;98089.91;4205847;28;20846;-85
2022/09/07 08:34:36;;;;;;;9.77;3.20;;;;;;;28.87;64.42;98094.38;4208384;28;20716;-86
2022/09/07 08:36:39;;;;;;;4.73;2.87;;;;;;;28.97;65.14;98100.91;4206144;28;20662;-86
2022/09/07 08:38:43;;;;;;;7.17;3.53;;;;;;;29.07;65.10;98094.00;4204449;28;20650;-85
2022/09/07 08:40:46;;;;;;;6.13;3.93;;;;;;;29.20;64.09;98093.91;4210830;28;20647;-86
2022/09/07 08:43:00;;;;;;;7.43;3.13;;;;;;;29.20;64.14;98099.28;4207103;28;20746;-85
2022/09/07 08:45:06;;;;;;;7.93;3.53;;;;;;;29.29;63.67;98095.31;4187675;28;21443;-86
2022/09/07 08:47:19;;;;;;;8.03;3.40;;;;;;;29.37;63.55;98100.38;4202755;28;20665;-86
2022/09/07 08:49:30;;;;;;;6.77;2.90;;;;;;;29.29;62.93;98095.31;4191396;28;20688;-85
2022/09/07 08:51:37;;;;;;;6.10;3.73;;;;;;;29.40;63.96;98093.75;4204144;28;20682;-86
2022/09/07 08:53:45;;;;;;;7.37;3.20;;;;;;;29.44;63.05;98090.41;4209341;28;20654;-86
2022/09/07 08:55:51;;;;;;;8.43;3.50;;;;;;;29.52;63.32;98098.97;4202774;28;20646;-85
2022/09/07 08:58:00;;;;;;;6.43;3.93;;;;;;;29.64;63.13;98086.44;4203010;28;20649;-86
2022/09/07 09:00:07;;;;;;;4.50;3.20;;;;;;;29.74;61.85;98088.59;4202742;28;20754;-86
2022/09/07 09:02:13;;;;;;;9.40;3.97;;;;;;;29.78;61.92;98092.50;4203859;28;20749;-86
2022/09/07 09:04:36;;;;;;;7.00;3.27;;;;;;;29.74;62.27;98083.22;4205413;28;20643;-85
2022/09/07 09:07:09;;;;;;;6.40;3.50;;;;;;;29.66;62.04;98084.34;4197778;28;20722;-86
2022/09/07 09:09:20;;;;;;;7.30;4.03;;;;;;;29.70;62.05;98076.66;4207137;28;20675;-86
2022/09/07 09:11:27;;;;;;;6.17;3.50;;;;;;;29.67;62.35;98077.91;4208961;28;20652;-86
2022/09/07 09:13:41;;;;;;;9.60;3.47;;;;;;;29.74;62.57;98077.84;4185603;28;20651;-86
2022/09/07 09:15:53;;;;;;;8.07;3.97;;;;;;;29.73;62.52;98068.13;4201547;28;20647;-86
2022/09/07 09:18:00;;;;;;;6.87;4.00;;;;;;;29.63;62.38;98068.66;4201568;28;21009;-87
2022/09/07 09:20:13;;;;;;;6.67;3.80;;;;;;;29.64;62.24;98067.59;4187416;28;20652;-85
2022/09/07 09:22:19;;;;;;;10.57;3.90;;;;;;;29.73;62.71;98066.25;4202902;28;20650;-86
2022/09/07 09:24:30;;;;;;;8.17;3.93;;;;;;;29.75;61.91;98071.41;4184739;28;21510;-86
2022/09/07 09:26:34;;;;;;;9.00;3.90;;;;;;;29.67;62.24;98067.16;4180420;28;20655;-86
2022/09/07 09:28:37;;;;;;;6.10;3.57;;;;;;;29.71;62.46;98065.69;4201992;28;20661;-86
2022/09/07 09:30:41;;;;;;;6.40;3.47;;;;;;;29.82;62.56;98061.44;4198751;28;20651;-86
2022/09/07 09:32:46;;;;;;;6.53;4.07;;;;;;;29.91;62.81;98070.84;4202693;28;20649;-86
2022/09/07 09:35:01;;;;;;;7.00;3.90;;;;;;;29.95;62.88;98062.09;4205652;28;20709;-86
2022/09/07 09:37:04;;;;;;;7.53;4.13;;;;;;;29.96;62.48;98055.66;4199018;28;20708;-86
2022/09/07 09:41:42;;;;;;;7.03;4.00;;;;;;;29.97;61.59;98047.34;4243540;27;20876;-86
2022/09/07 09:43:47;;;;;;;8.90;3.97;;;;;;;29.90;61.88;98048.47;4213838;28;23003;-85
2022/09/07 09:45:52;;;;;;;9.10;3.53;;;;;;;30.00;62.47;98048.78;4231603;27;20655;-85
2022/09/07 09:48:19;;;;;;;6.97;3.90;;;;;;;30.08;62.18;98051.97;4228219;27;21207;-86
2022/09/07 09:50:24;;;;;;;4.50;3.30;;;;;;;30.15;62.06;98044.63;4227983;27;20657;-85
2022/09/07 09:52:48;;;;;;;7.23;3.90;;;;;;;30.18;61.94;98052.25;4223994;28;21227;-85
2022/09/07 09:54:55;;;;;;;6.80;3.90;;;;;;;30.21;62.04;98049.09;4226978;27;20731;-85
2022/09/07 09:57:14;;;;;;;24.13;21.57;;;;;;;30.34;62.06;98040.88;4227039;27;20695;-85